Latest Coastal Weather Observations for Low Rocky Point

IDT60701

Issued at 3:11 pm EDT Monday 8 February 2016 (issued every 10 minutes, with the page automatically refreshed every 10 minutes)

About coastal observations | Map of coastal stations | Coastal observations for TAS | Marine services | Other Formats
Station Details ID: 097080 Name: LOW ROCKY POINT Lat: -42.98 Lon: 145.50 Height: 34.0 m
Data from the previous 72 hours. | See also: Recent months at Low Rocky Point
Date/Time
EDT
Temp

°C
Wind Pressure Rain
since 9am
mm
Weather Cloud Vis
km
Sea
Height
m
Swell
Dir
 
Speed
knots
Gust
knots
hPa Trend Height
m
Period
s
Dir
08/03:00pm 19.3 WNW 14 18 1021.2 - 0.0 - - - - - - -
08/02:30pm 19.3 WNW 14 17 1020.9 - 0.0 - - - - - - -
08/02:00pm 18.4 WNW 15 18 1021.3 - 0.0 - - - - - - -
08/01:30pm 18.8 WNW 12 15 1021.1 - 0.0 - - - - - - -
08/01:00pm 18.1 W 13 16 1021.3 - 0.0 - - - - - - -
08/12:30pm 18.7 W 13 16 1021.1 - 0.0 - - - - - - -
08/12:00pm 17.5 W 15 18 1021.4 - 0.0 - - - - - - -
08/11:30am 18.8 WNW 14 17 1020.9 - 0.0 - - - - - - -
08/11:00am 18.2 W 14 17 1021.3 - 0.0 - - - - - - -
08/10:30am 17.7 WNW 15 18 1021.0 - 0.0 - - - - - - -
08/10:00am 18.3 W 16 20 1021.0 - 0.0 - - - - - - -
08/09:30am 17.5 W 17 21 1020.6 - 0.0 - - - - - - -
08/09:00am 17.5 W 18 21 1020.5 - 0.0 - - - - - - -
08/08:30am 17.1 W 17 20 1020.0 - 0.0 - - - - - - -
08/08:00am 16.9 W 15 19 1020.1 - 0.0 - - - - - - -
08/07:30am 16.8 WNW 13 16 1019.6 - 0.0 - - - - - - -
08/07:00am 16.3 W 14 17 1019.4 - 0.0 - - - - - - -
08/06:30am 16.2 W 16 19 1019.0 - 0.0 - - - - - - -
08/06:00am 16.4 W 14 17 1018.9 - 0.0 - - - - - - -
08/05:30am 16.3 W 11 14 1018.4 - 0.0 - - - - - - -
08/05:00am 16.5 W 13 15 1018.4 - 0.0 - - - - - - -
08/04:30am 16.8 W 13 16 1018.3 - 0.0 - - - - - - -
08/04:00am 16.8 WNW 11 13 1018.4 - 0.0 - - - - - - -
08/03:30am 16.6 WNW 8 9 1018.4 - 0.0 - - - - - - -
08/03:00am 16.4 WNW 9 11 1018.6 - 0.0 - - - - - - -
08/02:30am 16.6 W 11 13 1018.6 - 0.0 - - - - - - -
08/02:00am 15.8 W 7 11 1018.8 - 0.0 - - - - - - -
08/01:30am 15.1 NW 4 5 1018.7 - 0.0 - - - - - - -
08/01:00am 15.5 NNW 5 5 1018.8 - 0.0 - - - - - - -
08/12:30am 16.6 CALM 0 0 1018.6 - 0.0 - - - - - - -
08/12:00am 16.5 CALM 0 0 1019.0 - 0.0 - - - - - - -
 
Date/Time
EDT
Temp

°C
Wind Pressure Rain
since 9am
mm
Weather Cloud Vis
km
Sea
Height
m
Swell
Dir
 
Speed
knots
Gust
knots
hPa Trend Height
m
Period
s
Dir
07/11:30pm 16.3 WNW 2 3 1018.9 - 0.0 - - - - - - -
07/11:00pm 16.1 CALM 0 0 1018.8 - 0.0 - - - - - - -
07/10:30pm 16.1 SSE 5 5 1018.7 - 0.0 - - - - - - -
07/10:00pm 16.5 SE 5 6 1018.5 - 0.0 - - - - - - -
07/09:30pm 17.1 SE 6 6 1018.3 - 0.0 - - - - - - -
07/09:00pm 16.6 ESE 6 8 1018.0 - 0.0 - - - - - - -
07/08:30pm 17.2 SE 5 6 1017.8 - 0.0 - - - - - - -
07/08:00pm 18.4 SSE 7 8 1017.9 - 0.0 - - - - - - -
07/07:30pm 19.2 SE 8 10 1017.7 - 0.0 - - - - - - -
07/07:00pm 19.0 SSE 8 11 1017.7 - 0.0 - - - - - - -
07/06:30pm 19.1 SSE 8 9 1017.4 - 0.0 - - - - - - -
07/06:00pm 19.6 SE 8 11 1017.2 - 0.0 - - - - - - -
07/05:30pm 20.5 SE 9 11 1017.0 - 0.0 - - - - - - -
07/05:00pm 22.3 SE 10 12 1017.1 - 0.0 - - - - - - -
07/04:30pm 22.5 SSE 10 13 1017.1 - 0.0 - - - - - - -
07/04:00pm 21.7 SSE 10 12 1017.1 - 0.0 - - - - - - -
07/03:30pm 22.4 SSE 10 11 1017.0 - 0.0 - - - - - - -
07/03:00pm 23.2 S 9 12 1017.3 - 0.0 - - - - - - -
07/02:30pm 22.9 SSE 9 11 1017.1 - 0.0 - - - - - - -
07/02:00pm 22.9 SSE 9 11 1017.1 - 0.0 - - - - - - -
07/01:30pm 22.5 SSE 9 11 1017.4 - 0.0 - - - - - - -
07/01:00pm 22.3 SSE 8 10 1017.7 - 0.0 - - - - - - -
07/12:30pm 22.4 SSE 9 12 1017.6 - 0.0 - - - - - - -
07/12:00pm 22.2 SSE 10 13 1017.7 - 0.0 - - - - - - -
07/11:30am 21.5 SSE 9 13 1017.6 - 0.0 - - - - - - -
07/11:00am 21.2 SSE 10 12 1017.9 - 0.0 - - - - - - -
07/10:30am 20.2 SSE 8 10 1017.9 - 0.0 - - - - - - -
07/10:00am 19.9 SSE 7 8 1018.0 - 0.0 - - - - - - -
07/09:30am 19.2 SSE 5 7 1017.9 - 0.0 - - - - - - -
07/09:00am 19.0 ESE 3 6 1018.1 - 0.0 - - - - - - -
07/08:30am 18.1 SE 4 5 1017.8 - 0.0 - - - - - - -
07/08:00am 17.5 CALM 0 0 1018.0 - 0.0 - - - - - - -
07/07:30am 17.5 ESE 4 5 1017.7 - 0.0 - - - - - - -
07/07:00am 17.2 SE 5 6 1017.8 - 0.0 - - - - - - -
07/06:30am 17.1 SE 5 6 1017.7 - 0.0 - - - - - - -
07/06:00am 17.1 SE 7 9 1017.6 - 0.0 - - - - - - -
07/05:30am 17.1 ESE 8 11 1017.2 - 0.0 - - - - - - -
07/05:00am 17.1 SE 7 9 1017.5 - 0.0 - - - - - - -
07/04:30am 17.1 SE 7 9 1017.4 - 0.0 - - - - - - -
07/04:00am 17.1 SSE 7 8 1017.4 - 0.0 - - - - - - -
07/03:30am 17.2 SSE 7 9 1017.3 - 0.0 - - - - - - -
07/03:00am 17.3 SSE 6 7 1017.3 - 0.0 - - - - - - -
07/02:30am 17.2 SSE 5 7 1017.2 - 0.0 - - - - - - -
07/02:00am 17.5 S 5 6 1017.4 - 0.0 - - - - - - -
07/01:30am 17.6 S 5 7 1017.4 - 0.0 - - - - - - -
07/01:00am 17.7 S 5 7 1017.9 - 0.0 - - - - - - -
07/12:30am 17.7 S 5 6 1018.0 - 0.0 - - - - - - -
07/12:00am 17.7 S 5 7 1018.0 - 0.0 - - - - - - -
 
Date/Time
EDT
Temp

°C
Wind Pressure Rain
since 9am
mm
Weather Cloud Vis
km
Sea
Height
m
Swell
Dir
 
Speed
knots
Gust
knots
hPa Trend Height
m
Period
s
Dir
06/11:30pm 17.5 SSE 7 8 1017.9 - 0.0 - - - - - - -
06/11:00pm 17.5 SSE 7 9 1018.0 - 0.0 - - - - - - -
06/10:30pm 17.7 SSE 9 12 1017.9 - 0.0 - - - - - - -
06/10:00pm 17.8 S 10 13 1018.0 - 0.0 - - - - - - -
06/09:30pm 17.7 SSE 8 10 1017.6 - 0.0 - - - - - - -
06/09:00pm 17.1 SSE 8 11 1017.5 - 0.0 - - - - - - -
06/08:30pm 17.2 SSE 8 11 1017.2 - 0.0 - - - - - - -
06/08:00pm 17.8 SE 10 12 1017.2 - 0.0 - - - - - - -
06/07:30pm 18.2 SE 11 14 1017.1 - 0.0 - - - - - - -
06/07:00pm 18.8 SE 11 14 1017.1 - 0.0 - - - - - - -
06/06:30pm 19.0 SE 12 16 1017.0 - 0.0 - - - - - - -
06/06:00pm 19.3 SSE 12 16 1017.3 - 0.0 - - - - - - -
06/05:30pm 19.8 SSE 12 17 1017.4 - 0.0 - - - - - - -
06/05:00pm 19.9 SSE 14 17 1017.8 - 0.0 - - - - - - -
06/04:30pm 20.3 S 14 19 1017.9 - 0.0 - - - - - - -
06/04:00pm 20.5 S 14 16 1018.2 - 0.0 - - - - - - -
06/03:30pm 20.8 SSE 12 15 1018.4 - 0.0 - - - - - - -
06/03:00pm 21.0 SSE 11 15 1018.8 - 0.0 - - - - - - -
06/02:30pm 20.6 SSE 12 15 1019.1 - 0.0 - - - - - - -
06/02:00pm 20.4 SSE 11 15 1019.6 - 0.0 - - - - - - -
06/01:30pm 20.1 SSE 12 16 1019.8 - 0.0 - - - - - - -
06/01:00pm 19.3 SSE 12 14 1020.2 - 0.0 - - - - - - -
06/12:30pm 19.0 SE 11 15 1020.4 - 0.0 - - - - - - -
06/12:00pm 18.2 SSE 9 12 1021.0 - 0.0 - - - - - - -
06/11:30am 18.2 SSE 9 11 1021.1 - 0.0 - - - - - - -
06/11:00am 17.9 SSE 8 11 1021.3 - 0.0 - - - - - - -
06/10:30am 17.6 SSE 9 11 1021.1 - 0.0 - - - - - - -
06/10:00am 17.1 SSE 7 9 1021.4 - 0.0 - - - - - - -
06/09:30am 16.9 SE 3 5 1021.5 - 0.0 - - - - - - -
06/09:00am 16.7 E 1 4 1021.4 - 0.0 - - - - - - -
06/08:30am 16.1 E 4 6 1021.2 - 0.0 - - - - - - -
06/08:00am 15.3 SE 5 6 1021.1 - 0.0 - - - - - - -
06/07:30am 14.7 ESE 3 5 1020.9 - 0.0 - - - - - - -
06/07:00am 14.2 CALM 0 0 1020.9 - 0.0 - - - - - - -
06/06:30am 13.5 NE 3 4 1020.4 - 0.0 - - - - - - -
06/06:00am 13.7 CALM 0 0 1020.1 - 0.0 - - - - - - -
06/05:30am 13.8 ENE 1 3 1019.8 - 0.0 - - - - - - -
06/05:00am 13.4 ENE 3 4 1019.9 - 0.0 - - - - - - -
06/04:30am 13.1 NNE 4 5 1019.8 - 0.0 - - - - - - -
06/04:00am 12.9 NNE 5 6 1020.0 - 0.0 - - - - - - -
06/03:30am 12.7 NNE 6 6 1020.1 - 0.0 - - - - - - -
06/03:00am 12.7 NE 5 6 1020.4 - 0.0 - - - - - - -
06/02:30am 12.7 NE 6 7 1020.8 - 0.0 - - - - - - -
06/02:00am 12.7 NE 7 8 1021.3 - 0.0 - - - - - - -
06/01:30am 13.3 ENE 5 7 1021.6 - 0.0 - - - - - - -
06/01:00am 14.7 SSE 9 11 1021.9 - 0.0 - - - - - - -
06/12:30am 14.7 SSE 10 12 1022.1 - 0.0 - - - - - - -
06/12:00am 14.8 SSE 10 13 1022.5 - 0.0 - - - - - - -
 
Date/Time
EDT
Temp

°C
Wind Pressure Rain
since 9am
mm
Weather Cloud Vis
km
Sea
Height
m
Swell
Dir
 
Speed
knots
Gust
knots
hPa Trend Height
m
Period
s
Dir
05/11:30pm 15.0 SSE 11 14 1022.8 - 0.0 - - - - - - -
05/11:00pm 15.0 SE 12 15 1023.0 - 0.0 - - - - - - -
05/10:30pm 14.9 SSE 12 16 1023.1 - 0.0 - - - - - - -
05/10:00pm 15.0 SSE 13 15 1023.2 - 0.0 - - - - - - -
05/09:30pm 15.1 SSE 13 17 1023.0 - 0.0 - - - - - - -
05/09:00pm 15.0 SSE 11 14 1023.1 - 0.0 - - - - - - -
05/08:30pm 15.4 SSE 11 15 1022.9 - 0.0 - - - - - - -
05/08:00pm 16.1 SSE 11 14 1022.8 - 0.0 - - - - - - -
05/07:30pm 16.7 SSE 11 14 1022.4 - 0.0 - - - - - - -
05/07:00pm 17.5 SSE 11 14 1022.4 - 0.0 - - - - - - -
05/06:30pm 18.3 SSE 11 14 1022.2 - 0.0 - - - - - - -
05/06:00pm 19.0 S 11 14 1022.4 - 0.0 - - - - - - -
05/05:30pm 20.0 SSE 10 13 1022.4 - 0.0 - - - - - - -
05/05:00pm 19.7 S 10 13 1022.7 - 0.0 - - - - - - -
05/04:30pm 19.7 S 9 11 1022.7 - 0.0 - - - - - - -
05/04:00pm 20.2 S 9 11 1023.1 - 0.0 - - - - - - -
05/03:30pm 20.6 S 9 12 1023.1 - 0.0 - - - - - - -

Other Formats:

Comma delimited format used in spreadsheet applications
http://www.bom.gov.au/fwo/IDT60701/IDT60701.95961.axf

JavaScript Object Notation format (JSON) in row-major order
http://www.bom.gov.au/fwo/IDT60701/IDT60701.95961.json